Time;durP1;ratioP1;P1;durP2;ratioP2;P2;SDS_P1;SDS_P2;PMS_P1;PMS_P2;Temp;Humidity;BMP_temperature;BMP_pressure;BME280_temperature;BME280_humidity;BME280_pressure;Samples;Min_cycle;Max_cycle;Signal;HPM_P1;HPM_P2
2023/04/27 00:02:50;;;;;;;;;;;;;;;9.33;41.30;100580.84;5411189;32;35710;-72
2023/04/27 00:05:52;;;;;;;;;;;;;;;9.91;40.48;100597.38;5397887;32;35098;-68
2023/04/27 00:08:54;;;;;;;;;;;;;;;9.06;42.28;100590.41;5422114;32;35037;-69
2023/04/27 00:11:56;;;;;;;;;;;;;;;10.36;40.04;100602.87;5421000;32;35085;-73
2023/04/27 00:14:58;;;;;;;;;;;;;;;10.06;40.31;100594.25;5419465;32;34296;-73
2023/04/27 00:18:00;;;;;;;;;;;;;;;10.18;39.63;100604.34;5412655;32;35291;-68
2023/04/27 00:21:02;;;;;;;;;;;;;;;9.95;40.84;100604.25;5413087;32;34826;-73
2023/04/27 00:24:05;;;;;;;;;;;;;;;10.27;39.88;100603.19;5427043;32;36118;-67
2023/04/27 00:27:06;;;;;;;;;;;;;;;9.72;41.86;100603.25;5413827;32;35477;-72
2023/04/27 00:30:09;;;;;;;;;;;;;;;10.13;40.90;100595.75;5408382;32;34390;-67
2023/04/27 00:33:11;;;;;;;;;;;;;;;10.14;40.69;100597.47;5412421;32;44766;-68
2023/04/27 00:36:12;;;;;;;;;;;;;;;8.84;43.30;100608.53;5420621;32;34904;-68
2023/04/27 00:39:15;;;;;;;;;;;;;;;9.28;42.71;100601.16;5414987;32;35017;-72
2023/04/27 00:42:18;;;;;;;;;;;;;;;8.76;43.73;100603.53;5412998;32;34902;-70
2023/04/27 00:45:20;;;;;;;;;;;;;;;8.42;43.73;100603.56;5428446;32;34644;-73
2023/04/27 00:48:22;;;;;;;;;;;;;;;8.88;43.15;100605.78;5413934;32;34919;-70
2023/04/27 00:51:29;;;;;;;;;;;;;;;9.19;42.17;100604.88;5421101;32;34289;-75
2023/04/27 00:54:30;;;;;;;;;;;;;;;8.88;43.27;100610.16;5400651;32;36013;-72
2023/04/27 00:57:33;;;;;;;;;;;;;;;8.86;43.11;100598.88;5422219;32;35897;-72
2023/04/27 01:00:35;;;;;;;;;;;;;;;8.59;43.96;100592.66;5420516;32;34990;-68
2023/04/27 01:03:37;;;;;;;;;;;;;;;9.61;41.54;100602.72;5414181;32;34747;-69
2023/04/27 01:06:39;;;;;;;;;;;;;;;9.55;41.25;100600.28;5424261;32;35134;-72
2023/04/27 01:09:41;;;;;;;;;;;;;;;8.66;43.45;100602.91;5417115;32;44721;-68
2023/04/27 01:12:43;;;;;;;;;;;;;;;8.13;44.55;100602.56;5423980;32;34933;-72
2023/04/27 01:15:45;;;;;;;;;;;;;;;8.59;43.19;100588.25;5413861;32;34812;-68
2023/04/27 01:18:47;;;;;;;;;;;;;;;9.01;42.62;100595.78;5423782;32;35403;-68
2023/04/27 01:21:48;;;;;;;;;;;;;;;8.56;43.52;100603.19;5414455;32;35201;-69
2023/04/27 01:24:50;;;;;;;;;;;;;;;8.67;43.29;100609.00;5421225;32;34734;-68
2023/04/27 01:27:53;;;;;;;;;;;;;;;8.49;43.54;100610.34;5424396;32;34364;-68
2023/04/27 01:30:55;;;;;;;;;;;;;;;9.47;41.53;100613.66;5399727;32;34850;-72
2023/04/27 01:33:57;;;;;;;;;;;;;;;8.58;43.18;100609.28;5423062;32;34932;-73
2023/04/27 01:36:59;;;;;;;;;;;;;;;8.66;43.23;100605.53;5416683;32;34948;-72
2023/04/27 01:40:00;;;;;;;;;;;;;;;8.53;43.83;100619.87;5428330;32;35010;-72
2023/04/27 01:43:02;;;;;;;;;;;;;;;8.35;44.24;100621.22;5400795;32;35152;-73
2023/04/27 01:46:05;;;;;;;;;;;;;;;8.48;44.27;100621.75;5419001;32;35317;-74
2023/04/27 01:49:07;;;;;;;;;;;;;;;8.65;43.54;100614.28;5423280;32;35570;-72
2023/04/27 01:52:09;;;;;;;;;;;;;;;8.48;44.02;100616.50;5413062;32;34497;-74
2023/04/27 01:55:11;;;;;;;;;;;;;;;9.20;43.41;100617.09;5427957;32;44895;-68
2023/04/27 01:58:13;;;;;;;;;;;;;;;9.42;41.84;100620.78;5406925;32;35806;-67
2023/04/27 02:01:15;;;;;;;;;;;;;;;9.21;42.67;100624.94;5425517;32;36927;-72
2023/04/27 02:04:17;;;;;;;;;;;;;;;8.17;44.99;100631.25;5408185;32;34475;-70
2023/04/27 02:07:19;;;;;;;;;;;;;;;8.24;45.03;100628.44;5419029;32;34677;-68
2023/04/27 02:10:21;;;;;;;;;;;;;;;7.85;46.19;100630.28;5413903;32;35111;-68
2023/04/27 02:13:23;;;;;;;;;;;;;;;7.92;46.51;100634.50;5421652;32;34722;-68
2023/04/27 02:16:25;;;;;;;;;;;;;;;7.77;46.71;100642.72;5422194;32;34890;-73
2023/04/27 02:19:26;;;;;;;;;;;;;;;7.59;47.32;100643.97;5420538;32;34883;-69
2023/04/27 02:22:28;;;;;;;;;;;;;;;7.88;46.49;100633.72;5422607;32;34986;-69
2023/04/27 02:25:30;;;;;;;;;;;;;;;8.45;45.49;100631.47;5417730;32;36864;-72
2023/04/27 02:28:32;;;;;;;;;;;;;;;8.38;46.12;100641.25;5421911;32;33811;-74
2023/04/27 02:31:34;;;;;;;;;;;;;;;7.41;47.99;100652.25;5408272;32;35015;-73
2023/04/27 02:34:36;;;;;;;;;;;;;;;7.66;47.28;100647.31;5422361;32;34617;-72
2023/04/27 02:37:38;;;;;;;;;;;;;;;7.62;47.46;100653.53;5428712;32;35358;-72
2023/04/27 02:40:40;;;;;;;;;;;;;;;7.75;47.20;100657.59;5402408;32;47228;-72
2023/04/27 02:43:42;;;;;;;;;;;;;;;8.23;46.57;100655.53;5426181;32;36111;-68
2023/04/27 02:46:44;;;;;;;;;;;;;;;8.48;45.78;100653.19;5414541;32;35019;-68
2023/04/27 02:49:46;;;;;;;;;;;;;;;8.24;46.03;100654.63;5417838;32;34797;-73
2023/04/27 02:52:48;;;;;;;;;;;;;;;8.05;46.46;100654.25;5424455;32;33139;-72
2023/04/27 02:55:50;;;;;;;;;;;;;;;7.97;47.33;100661.41;5418200;32;35502;-68
2023/04/27 02:58:52;;;;;;;;;;;;;;;7.54;48.13;100677.25;5428380;32;35045;-72
2023/04/27 03:01:54;;;;;;;;;;;;;;;7.75;46.91;100661.06;5413938;32;34810;-68
2023/04/27 03:04:58;;;;;;;;;;;;;;;7.23;47.63;100667.44;5425123;32;34923;-71
2023/04/27 03:08:00;;;;;;;;;;;;;;;7.13;48.40;100678.09;5405783;32;35293;-68
2023/04/27 03:11:02;;;;;;;;;;;;;;;7.13;48.39;100678.09;5415528;32;35826;-72
2023/04/27 03:14:05;;;;;;;;;;;;;;;7.63;47.10;100681.41;5410937;32;35553;-69
2023/04/27 03:17:07;;;;;;;;;;;;;;;7.41;47.66;100678.41;5413883;32;35907;-69
2023/04/27 03:20:09;;;;;;;;;;;;;;;8.01;45.96;100670.91;5415915;32;35209;-72
2023/04/27 03:23:11;;;;;;;;;;;;;;;7.92;46.33;100683.34;5401921;32;44564;-68
2023/04/27 03:26:13;;;;;;;;;;;;;;;7.36;47.51;100686.34;5426362;32;36589;-72
2023/04/27 03:29:15;;;;;;;;;;;;;;;7.37;48.32;100690.69;5410958;32;35290;-71
2023/04/27 03:32:16;;;;;;;;;;;;;;;7.56;47.88;100689.41;5408217;32;36970;-68
2023/04/27 03:35:18;;;;;;;;;;;;;;;7.33;48.43;100683.78;5430299;32;34775;-68
2023/04/27 03:38:20;;;;;;;;;;;;;;;6.91;49.97;100698.59;5393939;32;35145;-73
2023/04/27 03:41:22;;;;;;;;;;;;;;;7.33;48.81;100696.84;5413734;32;34911;-68
2023/04/27 03:44:24;;;;;;;;;;;;;;;6.57;50.95;100686.16;5405481;32;35162;-73
2023/04/27 03:47:26;;;;;;;;;;;;;;;6.77;50.92;100704.06;5407264;32;35119;-68
2023/04/27 03:50:28;;;;;;;;;;;;;;;7.22;49.42;100702.31;5413824;32;34849;-69
2023/04/27 03:53:31;;;;;;;;;;;;;;;7.07;50.41;100707.84;5414944;32;35215;-73
2023/04/27 03:56:33;;;;;;;;;;;;;;;7.71;49.06;100708.25;5417741;32;34838;-69
2023/04/27 03:59:35;;;;;;;;;;;;;;;7.98;47.90;100710.22;5419467;32;34292;-68
2023/04/27 04:02:37;;;;;;;;;;;;;;;8.05;47.74;100701.37;5422926;32;34868;-73
2023/04/27 04:05:40;;;;;;;;;;;;;;;7.17;50.36;100719.84;5407305;32;35447;-72
2023/04/27 04:08:42;;;;;;;;;;;;;;;7.12;50.85;100719.06;5421885;32;44747;-72
2023/04/27 04:11:44;;;;;;;;;;;;;;;7.13;50.80;100727.78;5423243;32;35021;-67
2023/04/27 04:14:47;;;;;;;;;;;;;;;6.91;51.04;100729.94;5403653;32;35610;-72
2023/04/27 04:17:50;;;;;;;;;;;;;;;7.54;49.17;100729.56;5425645;32;35288;-71
2023/04/27 04:20:52;;;;;;;;;;;;;;;7.21;49.93;100734.59;5403902;32;35130;-68
2023/04/27 04:23:54;;;;;;;;;;;;;;;7.77;47.45;100734.28;5423506;32;34811;-72
2023/04/27 04:26:57;;;;;;;;;;;;;;;6.86;49.59;100740.47;5420419;32;34809;-71
2023/04/27 04:29:59;;;;;;;;;;;;;;;7.01;48.62;100741.94;5396162;32;34228;-68
2023/04/27 04:33:01;;;;;;;;;;;;;;;6.27;51.36;100750.19;5407922;32;35092;-73
2023/04/27 04:36:03;;;;;;;;;;;;;;;7.32;48.98;100740.44;5419080;32;35039;-72
2023/04/27 04:39:05;;;;;;;;;;;;;;;7.53;47.83;100733.06;5425473;32;34248;-72
2023/04/27 04:42:07;;;;;;;;;;;;;;;8.10;46.44;100741.38;5418896;32;35242;-68
2023/04/27 04:45:09;;;;;;;;;;;;;;;8.08;46.41;100751.03;5426953;32;34961;-73
2023/04/27 04:48:13;;;;;;;;;;;;;;;8.69;44.78;100743.44;5401065;32;44718;-73
2023/04/27 04:51:15;;;;;;;;;;;;;;;8.62;44.79;100748.00;5416626;32;35468;-68
2023/04/27 04:54:17;;;;;;;;;;;;;;;9.05;44.02;100739.00;5423517;32;34568;-72
2023/04/27 04:57:19;;;;;;;;;;;;;;;9.20;43.55;100746.44;5413611;32;35635;-74
2023/04/27 05:00:22;;;;;;;;;;;;;;;9.74;42.60;100744.94;5421392;32;35456;-68
2023/04/27 05:03:24;;;;;;;;;;;;;;;10.54;41.11;100727.53;5404319;32;35954;-68
2023/04/27 05:06:26;;;;;;;;;;;;;;;12.10;38.14;100740.25;5424806;32;35126;-69
2023/04/27 05:09:28;;;;;;;;;;;;;;;11.32;39.09;100745.81;5420652;32;34288;-74
2023/04/27 05:12:30;;;;;;;;;;;;;;;11.73;39.03;100752.19;5418932;32;36566;-74
2023/04/27 05:15:32;;;;;;;;;;;;;;;12.89;36.57;100736.13;5429658;32;34825;-72
2023/04/27 05:18:35;;;;;;;;;;;;;;;12.86;36.57;100749.41;5418283;32;34347;-73
2023/04/27 05:21:37;;;;;;;;;;;;;;;12.86;36.48;100745.00;5424811;32;33670;-74
2023/04/27 05:24:39;;;;;;;;;;;;;;;12.84;36.95;100762.69;5410053;32;35075;-74
2023/04/27 05:27:41;;;;;;;;;;;;;;;13.96;33.98;100757.69;5422461;32;45199;-68
2023/04/27 05:30:43;;;;;;;;;;;;;;;13.25;35.97;100765.34;5387030;32;34851;-65
2023/04/27 05:33:45;;;;;;;;;;;;;;;14.58;34.34;100753.84;5414063;32;35531;-74
2023/04/27 05:36:47;;;;;;;;;;;;;;;13.85;35.41;100773.19;5422807;32;35055;-72
2023/04/27 05:39:49;;;;;;;;;;;;;;;13.95;35.10;100774.47;5402122;32;34004;-65
2023/04/27 05:42:51;;;;;;;;;;;;;;;14.11;34.41;100769.34;5424142;32;34747;-66
2023/04/27 05:45:53;;;;;;;;;;;;;;;14.22;34.17;100772.31;5407695;32;35522;-64
2023/04/27 05:48:55;;;;;;;;;;;;;;;14.14;34.44;100779.75;5415620;32;34395;-65
2023/04/27 05:51:57;;;;;;;;;;;;;;;14.74;33.50;100775.94;5405273;32;34821;-72
2023/04/27 05:55:02;;;;;;;;;;;;;;;14.43;33.79;100781.88;5400430;32;34485;-74
2023/04/27 05:58:04;;;;;;;;;;;;;;;15.20;32.72;100778.91;5403382;32;33911;-73
2023/04/27 06:01:10;;;;;;;;;;;;;;;15.16;33.11;100775.53;5405800;32;35433;-66
2023/04/27 06:04:12;;;;;;;;;;;;;;;15.53;31.60;100789.50;5404128;32;44499;-73
2023/04/27 06:07:14;;;;;;;;;;;;;;;15.33;32.40;100782.63;5410253;32;37050;-66
2023/04/27 06:10:17;;;;;;;;;;;;;;;14.39;33.91;100788.22;5408574;32;35010;-65
2023/04/27 06:13:19;;;;;;;;;;;;;;;14.13;34.22;100788.63;5401796;32;34901;-74
2023/04/27 06:16:21;;;;;;;;;;;;;;;16.38;30.02;100786.59;5409887;32;34732;-75
2023/04/27 06:19:24;;;;;;;;;;;;;;;15.36;31.48;100789.53;5415506;32;35406;-74
2023/04/27 06:22:26;;;;;;;;;;;;;;;14.19;32.49;100797.13;5400485;32;34672;-69
2023/04/27 06:25:28;;;;;;;;;;;;;;;14.46;32.81;100788.78;5412478;32;35028;-68
2023/04/27 06:28:30;;;;;;;;;;;;;;;14.78;31.45;100792.50;5409337;32;35660;-79
2023/04/27 06:31:33;;;;;;;;;;;;;;;14.29;31.79;100785.16;5398216;32;34895;-71
2023/04/27 06:34:35;;;;;;;;;;;;;;;14.70;30.98;100795.56;5410830;32;35818;-67
2023/04/27 06:37:37;;;;;;;;;;;;;;;13.94;31.57;100800.06;5397886;32;34786;-70
2023/04/27 06:40:39;;;;;;;;;;;;;;;14.98;29.95;100794.16;5420673;32;35346;-64
2023/04/27 06:43:41;;;;;;;;;;;;;;;15.31;29.64;100795.06;5421176;32;47996;-73
2023/04/27 06:46:43;;;;;;;;;;;;;;;15.09;29.34;100797.13;5427058;32;34707;-76
2023/04/27 06:49:45;;;;;;;;;;;;;;;14.72;30.21;100796.31;5411445;32;34870;-66
2023/04/27 06:52:50;;;;;;;;;;;;;;;15.45;29.28;100807.56;5425076;32;34437;-76
2023/04/27 06:55:52;;;;;;;;;;;;;;;16.44;26.44;100796.00;5404224;32;35574;-67
2023/04/27 06:58:54;;;;;;;;;;;;;;;16.45;26.13;100803.03;5405464;32;34174;-77
2023/04/27 07:01:56;;;;;;;;;;;;;;;16.03;26.22;100800.97;5416912;32;34574;-66
2023/04/27 07:04:58;;;;;;;;;;;;;;;16.06;26.56;100801.66;5407820;32;35027;-86
2023/04/27 07:08:01;;;;;;;;;;;;;;;17.18;24.31;100798.75;5406654;32;34984;-86
2023/04/27 07:11:08;;;;;;;;;;;;;;;17.63;24.13;100807.53;5402479;32;34192;-67
2023/04/27 07:14:13;;;;;;;;;;;;;;;17.58;24.02;100805.16;5400632;32;46736;-70
2023/04/27 07:17:15;;;;;;;;;;;;;;;17.21;24.81;100800.38;5395656;32;34874;-70
2023/04/27 07:20:18;;;;;;;;;;;;;;;18.75;22.98;100795.97;5398560;32;34759;-70
2023/04/27 07:23:20;;;;;;;;;;;;;;;18.41;22.86;100797.28;5400192;32;35865;-76
2023/04/27 07:26:24;;;;;;;;;;;;;;;18.70;22.55;100795.41;5405471;32;34629;-66
2023/04/27 07:29:27;;;;;;;;;;;;;;;18.14;22.93;100800.75;5408078;32;33132;-83
2023/04/27 07:32:34;;;;;;;;;;;;;;;18.73;22.11;100802.31;5408627;32;34352;-77
2023/04/27 07:35:36;;;;;;;;;;;;;;;20.09;20.05;100811.56;5410845;32;34941;-80
2023/04/27 07:38:38;;;;;;;;;;;;;;;18.61;21.81;100811.94;5426781;32;34640;-70
2023/04/27 07:41:40;;;;;;;;;;;;;;;18.13;22.66;100816.84;5420901;32;45338;-77
2023/04/27 07:44:44;;;;;;;;;;;;;;;17.79;22.90;100807.47;5414135;32;44271;-65
2023/04/27 07:47:46;;;;;;;;;;;;;;;18.72;21.99;100805.94;5420400;32;34555;-77
2023/04/27 07:50:48;;;;;;;;;;;;;;;19.47;21.33;100796.37;5417753;32;37435;-80
2023/04/27 07:53:51;;;;;;;;;;;;;;;19.74;19.92;100798.94;5403937;32;35207;-63
2023/04/27 07:56:53;;;;;;;;;;;;;;;19.54;20.00;100800.31;5418709;32;35461;-64
2023/04/27 07:59:55;;;;;;;;;;;;;;;21.05;18.54;100775.03;5432017;32;34426;-64
2023/04/27 08:02:57;;;;;;;;;;;;;;;21.25;17.94;100786.84;5416246;32;34521;-66
2023/04/27 08:06:00;;;;;;;;;;;;;;;19.25;18.84;100804.13;5417329;32;34175;-76
2023/04/27 08:09:03;;;;;;;;;;;;;;;18.54;19.39;100802.66;5427653;32;34380;-65
2023/04/27 08:12:05;;;;;;;;;;;;;;;17.81;19.57;100802.91;5435635;32;34287;-77
2023/04/27 08:15:07;;;;;;;;;;;;;;;18.65;19.04;100797.47;5417297;32;34388;-76
2023/04/27 08:18:09;;;;;;;;;;;;;;;17.94;20.37;100795.00;5419282;32;35256;-65
2023/04/27 08:21:11;;;;;;;;;;;;;;;18.83;18.73;100798.09;5440617;32;45134;-66
2023/04/27 08:24:16;;;;;;;;;;;;;;;19.18;18.21;100803.69;5429564;32;34892;-65
2023/04/27 08:27:18;;;;;;;;;;;;;;;20.31;16.96;100778.84;5427366;32;35409;-64
2023/04/27 08:30:20;;;;;;;;;;;;;;;20.59;17.71;100793.69;5393872;32;34393;-65
2023/04/27 08:33:23;;;;;;;;;;;;;;;20.02;18.64;100800.47;5407600;32;34273;-74
2023/04/27 08:36:26;;;;;;;;;;;;;;;19.76;18.44;100799.66;5411570;32;34334;-76
2023/04/27 08:39:28;;;;;;;;;;;;;;;20.28;17.99;100801.25;5402607;32;34282;-88
2023/04/27 08:42:30;;;;;;;;;;;;;;;21.10;17.24;100791.56;5405826;32;34839;-73
2023/04/27 08:45:32;;;;;;;;;;;;;;;20.53;18.33;100797.66;5393566;32;35332;-68
2023/04/27 08:48:35;;;;;;;;;;;;;;;19.18;19.42;100783.22;5350895;32;33784;-76
2023/04/27 08:51:37;;;;;;;;;;;;;;;21.32;17.35;100793.50;5388740;32;34310;-66
2023/04/27 08:54:39;;;;;;;;;;;;;;;19.49;19.43;100799.78;5414176;32;35713;-70
2023/04/27 08:57:41;;;;;;;;;;;;;;;19.58;18.99;100804.50;5421851;32;44454;-66
2023/04/27 09:00:45;;;;;;;;;;;;;;;16.70;22.29;100806.00;5421775;32;35546;-63
2023/04/27 09:03:48;;;;;;;;;;;;;;;17.03;22.06;100794.38;5428036;32;35462;-64
2023/04/27 09:06:50;;;;;;;;;;;;;;;17.66;21.73;100802.03;5416222;32;35486;-71
2023/04/27 09:10:01;;;;;;;;;;;;;;;19.12;20.35;100798.78;5421747;32;33406;-70
2023/04/27 09:13:03;;;;;;;;;;;;;;;19.66;19.63;100771.97;5408848;32;34261;-71
2023/04/27 09:16:05;;;;;;;;;;;;;;;20.98;18.71;100785.34;5420383;32;34284;-71
2023/04/27 09:19:07;;;;;;;;;;;;;;;22.23;17.41;100771.12;5420115;32;35787;-66
2023/04/27 09:22:10;;;;;;;;;;;;;;;24.02;15.60;100759.31;5421443;32;35099;-73
2023/04/27 09:25:28;;;;;;;;;;;;;;;23.19;16.24;100763.03;5413576;32;44609;-64
2023/04/27 09:28:31;;;;;;;;;;;;;;;24.33;15.34;100770.81;5408475;32;34967;-69
2023/04/27 09:31:33;;;;;;;;;;;;;;;22.65;16.46;100770.22;5403629;32;35052;-64
2023/04/27 09:34:39;;;;;;;;;;;;;;;22.39;16.71;100766.19;5412358;32;34163;-65
2023/04/27 09:37:44;;;;;;;;;;;;;;;21.52;17.36;100770.53;5421984;32;44813;-68
2023/04/27 09:40:47;;;;;;;;;;;;;;;21.53;17.89;100759.72;5412221;32;34364;-72
2023/04/27 09:43:49;;;;;;;;;;;;;;;21.29;18.00;100766.97;5412764;32;34852;-67
2023/04/27 09:46:51;;;;;;;;;;;;;;;20.81;17.94;100764.41;5401769;32;34358;-66
2023/04/27 09:49:53;;;;;;;;;;;;;;;20.44;18.82;100751.12;5421730;32;36243;-66
2023/04/27 09:52:55;;;;;;;;;;;;;;;21.44;17.70;100751.56;5418602;32;35744;-68
2023/04/27 09:55:57;;;;;;;;;;;;;;;22.11;17.04;100732.81;5406047;32;34526;-73
2023/04/27 09:59:18;;;;;;;;;;;;;;;22.25;16.83;100750.41;5414052;32;34466;-74
2023/04/27 10:02:20;;;;;;;;;;;;;;;22.79;15.86;100742.25;5431799;32;36341;-78
2023/04/27 10:05:26;;;;;;;;;;;;;;;23.10;15.90;100721.75;5415786;32;35436;-69
2023/04/27 10:08:28;;;;;;;;;;;;;;;23.26;16.18;100734.72;5430365;32;32960;-64
2023/04/27 10:11:40;;;;;;;;;;;;;;;24.90;14.45;100722.63;5423346;32;35579;-62
2023/04/27 10:14:55;;;;;;;;;;;;;;;23.64;15.12;100728.69;5402831;32;46241;-71
2023/04/27 10:18:02;;;;;;;;;;;;;;;21.06;17.74;100732.19;5416930;32;32859;-62
2023/04/27 10:21:10;;;;;;;;;;;;;;;20.70;18.25;100729.66;5414404;32;35811;-61
2023/04/27 10:24:12;;;;;;;;;;;;;;;21.36;17.36;100720.06;5422998;32;44631;-73
2023/04/27 10:27:15;;;;;;;;;;;;;;;19.95;18.80;100737.84;5424267;32;34621;-70
2023/04/27 10:30:18;;;;;;;;;;;;;;;20.50;18.65;100721.31;5384097;32;34385;-66
2023/04/27 10:33:21;;;;;;;;;;;;;;;20.78;17.90;100729.91;5420012;32;34423;-72
2023/04/27 10:36:23;;;;;;;;;;;;;;;19.47;19.09;100741.25;5421008;32;34298;-71
2023/04/27 10:39:31;;;;;;;;;;;;;;;21.89;17.06;100721.13;5430795;32;34259;-65
2023/04/27 10:42:49;;;;;;;;;;;;;;;24.72;14.67;100706.38;5409753;32;42964;-64
2023/04/27 10:45:51;;;;;;;;;;;;;;;25.22;14.46;100709.69;5423530;32;34772;-71
2023/04/27 10:48:54;;;;;;;;;;;;;;;23.58;15.54;100715.78;5403914;32;35023;-69
2023/04/27 10:51:56;;;;;;;;;;;;;;;21.76;17.20;100724.91;5423777;32;34447;-66
2023/04/27 10:55:19;;;;;;;;;;;;;;;20.05;18.22;100735.37;5418557;32;34551;-64
2023/04/27 10:58:22;;;;;;;;;;;;;;;21.83;17.20;100726.13;5406655;32;36584;-68
2023/04/27 11:01:24;;;;;;;;;;;;;;;20.82;18.18;100728.72;5414533;32;33330;-69
2023/04/27 11:04:40;;;;;;;;;;;;;;;20.43;18.95;100711.19;5395586;32;35424;-75
2023/04/27 11:07:42;;;;;;;;;;;;;;;19.91;19.52;100733.72;5412912;32;44865;-63
2023/04/27 11:10:45;;;;;;;;;;;;;;;17.02;22.07;100739.56;5399931;32;35885;-63
2023/04/27 11:13:48;;;;;;;;;;;;;;;17.73;21.77;100731.63;5394200;32;34228;-69
2023/04/27 11:16:50;;;;;;;;;;;;;;;17.08;22.11;100728.56;5390674;32;35985;-63
2023/04/27 11:19:52;;;;;;;;;;;;;;;18.83;20.02;100718.22;5376315;32;35823;-79
2023/04/27 11:22:54;;;;;;;;;;;;;;;20.05;18.73;100714.03;5402683;32;35530;-61
2023/04/27 11:25:57;;;;;;;;;;;;;;;18.80;19.70;100718.41;5399614;32;33566;-62
2023/04/27 11:29:08;;;;;;;;;;;;;;;18.29;20.46;100719.13;5386398;32;34507;-79
2023/04/27 11:32:20;;;;;;;;;;;;;;;19.51;18.95;100714.34;5393869;32;43451;-61
2023/04/27 11:35:32;;;;;;;;;;;;;;;18.21;20.22;100718.75;5390864;32;34349;-79
2023/04/27 11:38:34;;;;;;;;;;;;;;;19.71;18.56;100698.69;5407750;32;33991;-72
2023/04/27 11:41:38;;;;;;;;;;;;;;;21.22;17.48;100704.25;5399258;32;34680;-69
2023/04/27 11:44:40;;;;;;;;;;;;;;;23.03;16.06;100704.50;5411910;32;34879;-67
2023/04/27 11:47:45;;;;;;;;;;;;;;;21.97;17.34;100699.13;5418062;32;44660;-68
2023/04/27 11:50:48;;;;;;;;;;;;;;;24.31;15.28;100693.06;5406543;32;34376;-63
2023/04/27 11:53:51;;;;;;;;;;;;;;;21.66;17.72;100700.75;5388938;32;36102;-75
2023/04/27 11:57:03;;;;;;;;;;;;;;;20.78;19.00;100704.03;5408294;32;34843;-80
2023/04/27 12:00:09;;;;;;;;;;;;;;;22.17;17.06;100703.72;5400790;32;34336;-60
2023/04/27 12:03:14;;;;;;;;;;;;;;;18.33;20.69;100694.00;5404642;32;44546;-60
2023/04/27 12:06:16;;;;;;;;;;;;;;;17.34;21.80;100711.03;5399195;32;37090;-73
2023/04/27 12:09:22;;;;;;;;;;;;;;;17.96;21.19;100708.84;5401959;32;34153;-62
2023/04/27 12:12:26;;;;;;;;;;;;;;;20.31;19.17;100696.09;5400531;32;33932;-62
2023/04/27 12:15:28;;;;;;;;;;;;;;;21.30;17.98;100694.69;5408624;32;35819;-63
2023/04/27 12:18:30;;;;;;;;;;;;;;;23.68;16.12;100686.31;5409177;32;34224;-74
2023/04/27 12:21:32;;;;;;;;;;;;;;;23.64;15.82;100692.97;5404394;32;34406;-73
2023/04/27 12:24:35;;;;;;;;;;;;;;;24.19;15.56;100694.19;5406082;32;34243;-63
2023/04/27 12:27:41;;;;;;;;;;;;;;;25.90;13.90;100683.31;5401560;32;44002;-73
2023/04/27 12:30:45;;;;;;;;;;;;;;;20.58;18.25;100706.53;5404766;32;34238;-63
2023/04/27 12:33:48;;;;;;;;;;;;;;;19.30;19.48;100700.75;5394894;32;34313;-73
2023/04/27 12:36:50;;;;;;;;;;;;;;;18.98;19.88;100695.00;5419571;32;34492;-64
2023/04/27 12:39:52;;;;;;;;;;;;;;;17.30;22.15;100712.16;5398443;32;35839;-62
2023/04/27 12:42:54;;;;;;;;;;;;;;;17.55;21.97;100701.69;5427150;32;34368;-64
2023/04/27 12:45:56;;;;;;;;;;;;;;;18.66;20.74;100700.69;5410556;32;33060;-62
2023/04/27 12:49:05;;;;;;;;;;;;;;;17.20;22.14;100693.28;5404861;32;34358;-78
2023/04/27 12:52:07;;;;;;;;;;;;;;;17.05;22.80;100702.16;5417158;32;35086;-63
2023/04/27 12:55:10;;;;;;;;;;;;;;;17.68;21.88;100706.25;5413253;32;34226;-66
2023/04/27 12:58:32;;;;;;;;;;;;;;;16.25;23.47;100714.84;5412948;32;34881;-73
2023/04/27 13:01:34;;;;;;;;;;;;;;;15.32;24.29;100701.44;5403297;32;35574;-61
2023/04/27 13:04:36;;;;;;;;;;;;;;;16.00;23.82;100706.56;5414851;32;34418;-79
2023/04/27 13:07:38;;;;;;;;;;;;;;;17.33;22.39;100704.84;5422514;32;35329;-78
2023/04/27 13:10:41;;;;;;;;;;;;;;;16.55;23.33;100710.47;5408997;32;45489;-74
2023/04/27 13:13:43;;;;;;;;;;;;;;;17.64;21.87;100708.22;5415791;32;36243;-66
2023/04/27 13:16:47;;;;;;;;;;;;;;;17.74;21.66;100687.28;5424243;32;34196;-74
2023/04/27 13:19:50;;;;;;;;;;;;;;;16.12;23.62;100708.53;5403810;32;34303;-75
2023/04/27 13:22:52;;;;;;;;;;;;;;;15.61;24.70;100713.09;5414190;32;35910;-66
2023/04/27 13:25:54;;;;;;;;;;;;;;;16.25;23.75;100704.22;5415047;32;35712;-76
2023/04/27 13:28:57;;;;;;;;;;;;;;;16.37;24.48;100707.13;5413199;32;34238;-64
2023/04/27 13:31:59;;;;;;;;;;;;;;;17.47;22.87;100706.66;5394348;32;34161;-74
2023/04/27 13:35:02;;;;;;;;;;;;;;;16.36;23.69;100708.91;5416634;32;34415;-64
2023/04/27 13:38:05;;;;;;;;;;;;;;;17.00;23.55;100701.59;5414825;32;35872;-79
2023/04/27 13:41:07;;;;;;;;;;;;;;;16.15;23.75;100702.19;5419038;32;34224;-69
2023/04/27 13:44:09;;;;;;;;;;;;;;;17.10;23.13;100688.63;5426983;32;36788;-72
2023/04/27 13:47:12;;;;;;;;;;;;;;;17.15;23.05;100703.34;5421615;32;44557;-66
2023/04/27 13:50:15;;;;;;;;;;;;;;;17.45;22.46;100700.59;5419317;32;35526;-68
2023/04/27 13:53:17;;;;;;;;;;;;;;;16.98;22.85;100698.19;5400596;32;33289;-83
2023/04/27 13:56:19;;;;;;;;;;;;;;;17.77;21.88;100695.88;5428472;32;34311;-70
2023/04/27 13:59:21;;;;;;;;;;;;;;;17.27;22.31;100691.09;5392402;32;34004;-81
2023/04/27 14:02:23;;;;;;;;;;;;;;;16.19;23.92;100707.22;5404016;32;34264;-70
2023/04/27 14:05:26;;;;;;;;;;;;;;;16.70;23.53;100685.72;5423275;32;35676;-78
2023/04/27 14:08:28;;;;;;;;;;;;;;;15.74;25.30;100699.22;5381702;32;34378;-67
2023/04/27 14:11:30;;;;;;;;;;;;;;;16.53;24.16;100703.47;5381596;32;956471;-65
2023/04/27 14:14:35;;;;;;;;;;;;;;;17.37;22.80;100696.69;5414096;32;35319;-76
2023/04/27 14:17:37;;;;;;;;;;;;;;;17.05;23.45;100689.75;5417542;32;35573;-76
2023/04/27 14:20:41;;;;;;;;;;;;;;;17.84;22.39;100699.03;5382952;32;34792;-75
2023/04/27 14:23:42;;;;;;;;;;;;;;;17.16;22.94;100705.03;5386927;32;45299;-66
2023/04/27 14:26:46;;;;;;;;;;;;;;;18.03;21.93;100718.19;5405817;32;35516;-74
2023/04/27 14:29:48;;;;;;;;;;;;;;;17.05;23.16;100718.09;5409744;32;34939;-65
2023/04/27 14:32:50;;;;;;;;;;;;;;;16.73;23.06;100715.59;5398615;32;34334;-66
2023/04/27 14:35:53;;;;;;;;;;;;;;;15.76;23.81;100713.22;5408573;32;34450;-76
2023/04/27 14:38:54;;;;;;;;;;;;;;;16.84;22.94;100716.75;5404848;32;33940;-65
2023/04/27 14:41:56;;;;;;;;;;;;;;;16.91;22.88;100710.12;5406158;32;34215;-66
2023/04/27 14:44:58;;;;;;;;;;;;;;;16.99;22.93;100715.81;5382711;32;35111;-65
2023/04/27 14:48:01;;;;;;;;;;;;;;;17.02;22.53;100708.53;5413259;32;34414;-73
2023/04/27 14:51:03;;;;;;;;;;;;;;;16.89;22.47;100712.03;5413348;32;35861;-65
2023/04/27 14:54:06;;;;;;;;;;;;;;;17.08;22.72;100707.31;5416465;32;34778;-66
2023/04/27 14:57:08;;;;;;;;;;;;;;;16.87;22.58;100706.78;5404038;32;34654;-75
2023/04/27 15:00:13;;;;;;;;;;;;;;;16.90;22.87;100705.78;5425169;32;46838;-73
2023/04/27 15:03:15;;;;;;;;;;;;;;;17.28;22.72;100717.56;5396031;32;35191;-67
2023/04/27 15:06:18;;;;;;;;;;;;;;;17.30;22.48;100715.66;5418818;32;35229;-66
2023/04/27 15:09:20;;;;;;;;;;;;;;;17.29;22.21;100719.25;5417477;32;35632;-66
2023/04/27 15:12:22;;;;;;;;;;;;;;;17.00;22.66;100717.53;5413360;32;34300;-76
2023/04/27 15:15:24;;;;;;;;;;;;;;;17.37;22.26;100715.28;5407857;32;35159;-66
2023/04/27 15:18:25;;;;;;;;;;;;;;;17.17;22.54;100695.25;5397259;32;34952;-76
2023/04/27 15:21:28;;;;;;;;;;;;;;;16.48;23.35;100709.97;5413011;32;34996;-66
2023/04/27 15:24:30;;;;;;;;;;;;;;;16.55;23.74;100707.81;5416026;32;34887;-66
2023/04/27 15:27:32;;;;;;;;;;;;;;;15.97;24.17;100727.94;5415972;32;35455;-67
2023/04/27 15:30:34;;;;;;;;;;;;;;;16.67;23.43;100718.56;5393912;32;34810;-67
2023/04/27 15:33:36;;;;;;;;;;;;;;;16.11;23.94;100692.72;5406180;32;36739;-74
2023/04/27 15:36:38;;;;;;;;;;;;;;;16.87;23.23;100713.91;5421774;32;35064;-67
2023/04/27 15:39:41;;;;;;;;;;;;;;;16.49;23.16;100724.97;5405337;32;43446;-74
2023/04/27 15:42:42;;;;;;;;;;;;;;;16.19;23.51;100719.63;5411958;32;34909;-66
2023/04/27 15:45:44;;;;;;;;;;;;;;;15.92;24.09;100716.75;5422677;32;35071;-65